Terminal Aerodrome Forecast
Issued by NWS

Home | Current Version | Previous Version | Text Only | Print | Product List | Glossary On
Versions: 1 2 3 4 5 6 7 8 9 10 11 12 13 14 15
000
FTAK31 PANC 162046 AAA
TAFAVD
TAF AMD
PAVD 162046Z 1621/1718 09004KT P6SM SCT035 BKN050
     FM162300 25006KT 3SM -RA BR SCT008 OVC015
     FM170200 27004KT 4SM BR OVC015
      AMD LTD TO CLD VIS AND WIND=

USA.gov is the U.S. government's official web portal to all federal, state and local government web resources and services.